createdAt,value
2023-03-21T00:00:43.084Z,75.42
2023-03-21T00:03:09.752Z,76.17
2023-03-21T00:05:43.410Z,76.90
2023-03-21T00:08:10.168Z,76.26
2023-03-21T00:10:41.528Z,76.73
2023-03-21T00:13:15.782Z,78.99
2023-03-21T00:15:54.093Z,79.31
2023-03-21T00:18:30.221Z,76.54
2023-03-21T00:21:33.782Z,75.22
2023-03-21T00:23:48.494Z,75.43
2023-03-21T00:26:15.538Z,75.73
2023-03-21T00:28:43.961Z,75.99
2023-03-21T00:31:10.987Z,74.19
2023-03-21T00:33:37.831Z,75.47
2023-03-21T00:36:05.886Z,75.32
2023-03-21T00:38:32.867Z,74.47
2023-03-21T00:41:04.694Z,76.67
2023-03-21T00:43:35.636Z,76.23
2023-03-21T00:46:02.385Z,74.85
2023-03-21T00:48:29.680Z,75.82
2023-03-21T00:50:57.824Z,74.89
2023-03-21T00:53:24.475Z,76.01
2023-03-21T00:55:51.121Z,76.37
2023-03-21T00:58:18.159Z,76.77
2023-03-21T01:00:47.968Z,77.26
2023-03-21T01:03:24.522Z,78.63
2023-03-21T01:05:52.702Z,79.95
2023-03-21T01:08:28.029Z,78.41
2023-03-21T01:11:02.513Z,79.09
2023-03-21T01:13:29.185Z,78.60
2023-03-21T01:15:56.912Z,81.59
2023-03-21T01:18:27.298Z,81.37
2023-03-21T01:20:56.771Z,78.73
2023-03-21T01:23:23.992Z,77.34
2023-03-21T01:25:53.630Z,78.00
2023-03-21T01:28:20.662Z,79.06
2023-03-21T01:30:51.510Z,80.29
2023-03-21T01:33:19.426Z,81.77
2023-03-21T01:35:55.201Z,79.78
2023-03-21T01:38:27.451Z,78.43
2023-03-21T01:40:54.191Z,79.64
2023-03-21T01:43:27.605Z,78.70
2023-03-21T01:46:27.362Z,79.97
2023-03-21T01:49:03.213Z,77.45
2023-03-21T01:51:34.646Z,81.92
2023-03-21T01:54:02.028Z,81.51
2023-03-21T01:56:35.172Z,81.81
2023-03-21T01:59:11.654Z,79.86
2023-03-21T02:01:39.695Z,84.97
2023-03-21T02:04:06.435Z,83.47
2023-03-21T02:06:46.644Z,82.10
2023-03-21T02:09:18.713Z,82.62
2023-03-21T02:11:46.719Z,80.86
2023-03-21T02:14:28.310Z,80.54
2023-03-21T02:16:58.284Z,79.57
2023-03-21T02:19:53.121Z,86.47
2023-03-21T02:22:29.347Z,89.76
2023-03-21T02:25:06.184Z,88.98
2023-03-21T02:28:12.463Z,91.40
2023-03-21T02:30:57.688Z,90.39
2023-03-21T02:33:43.216Z,90.08
2023-03-21T02:36:27.042Z,88.75
2023-03-21T02:39:06.707Z,90.03
2023-03-21T02:41:53.357Z,89.60
2023-03-21T02:44:27.293Z,89.80
2023-03-21T02:47:27.096Z,89.91
2023-03-21T02:50:12.588Z,89.34
2023-03-21T02:52:40.768Z,88.73
2023-03-21T02:55:15.336Z,87.87
2023-03-21T02:57:44.399Z,86.57
2023-03-21T03:00:17.693Z,85.76
2023-03-21T03:02:45.550Z,86.70
2023-03-21T03:05:21.757Z,86.83
2023-03-21T03:08:06.564Z,86.12
2023-03-21T03:10:51.756Z,86.36
2023-03-21T03:13:50.430Z,85.51
2023-03-21T03:16:43.475Z,84.62
2023-03-21T03:19:28.006Z,84.84
2023-03-21T03:22:13.202Z,83.22
2023-03-21T03:24:50.763Z,83.21
2023-03-21T03:27:24.289Z,84.76
2023-03-21T03:29:52.958Z,85.60
2023-03-21T03:32:47.545Z,84.80
2023-03-21T03:35:18.173Z,83.47
2023-03-21T03:37:51.615Z,82.99
2023-03-21T03:40:31.509Z,83.34
2023-03-21T03:43:08.499Z,85.46
2023-03-21T03:45:58.974Z,84.83
2023-03-21T03:48:37.205Z,85.18
2023-03-21T03:51:16.376Z,83.33
2023-03-21T03:53:51.162Z,85.38
2023-03-21T03:56:18.336Z,84.32
2023-03-21T03:58:46.195Z,83.87
2023-03-21T04:01:13.363Z,85.70
2023-03-21T04:03:50.276Z,83.90
2023-03-21T04:06:19.338Z,84.07
2023-03-21T04:08:46.205Z,84.93
2023-03-21T04:11:14.656Z,85.00
2023-03-21T04:13:41.955Z,85.18
2023-03-21T04:16:10.145Z,86.26
2023-03-21T04:18:37.215Z,86.54
2023-03-21T04:21:08.080Z,85.44
2023-03-21T04:23:34.679Z,86.46
2023-03-21T04:26:01.483Z,84.86
2023-03-21T04:28:28.062Z,85.35
2023-03-21T04:31:03.780Z,86.11
2023-03-21T04:33:35.384Z,85.55
2023-03-21T04:36:02.121Z,85.73
2023-03-21T04:38:28.765Z,85.00
2023-03-21T04:40:55.410Z,86.60
2023-03-21T04:43:22.182Z,86.17
2023-03-21T04:45:48.949Z,85.83
2023-03-21T04:48:15.734Z,84.23
2023-03-21T04:50:42.361Z,85.97
2023-03-21T04:53:09.208Z,85.62
2023-03-21T04:55:36.048Z,85.55
2023-03-21T04:58:04.033Z,85.60
2023-03-21T05:00:30.962Z,85.17
2023-03-21T05:02:58.036Z,84.61
2023-03-21T05:05:25.090Z,84.44
2023-03-21T05:07:51.710Z,83.25
2023-03-21T05:10:18.368Z,83.84
2023-03-21T05:12:45.352Z,83.52
2023-03-21T05:15:12.048Z,83.56
2023-03-21T05:17:38.720Z,83.45
2023-03-21T05:20:06.210Z,83.04
2023-03-21T05:22:32.834Z,82.27
2023-03-21T05:24:59.465Z,82.69
2023-03-21T05:27:26.122Z,84.95
2023-03-21T05:29:52.720Z,86.70
2023-03-21T05:32:19.384Z,88.62
2023-03-21T05:34:46.035Z,87.16
2023-03-21T05:37:12.969Z,85.82
2023-03-21T05:39:39.643Z,84.74
2023-03-21T05:42:06.266Z,83.17
2023-03-21T05:44:32.890Z,82.99
2023-03-21T05:46:59.499Z,84.10
2023-03-21T05:49:26.228Z,82.94
2023-03-21T05:51:52.854Z,83.31
2023-03-21T05:54:19.487Z,83.71
2023-03-21T05:56:46.133Z,84.49
2023-03-21T05:59:13.182Z,83.37
2023-03-21T06:01:39.798Z,82.86
2023-03-21T06:04:06.469Z,81.36
2023-03-21T06:06:34.953Z,82.14
2023-03-21T06:09:01.791Z,84.61
2023-03-21T06:11:34.168Z,83.08
2023-03-21T06:14:00.761Z,83.15
2023-03-21T06:16:28.006Z,83.97
2023-03-21T06:18:55.464Z,83.00
2023-03-21T06:21:23.071Z,83.25
2023-03-21T06:23:50.479Z,84.40
2023-03-21T06:26:17.966Z,82.67
2023-03-21T06:28:44.588Z,83.38
2023-03-21T06:31:11.366Z,82.24
2023-03-21T06:33:38.057Z,83.11
2023-03-21T06:36:04.889Z,78.79
2023-03-21T06:38:31.705Z,79.79
2023-03-21T06:40:58.475Z,78.28
2023-03-21T06:43:25.139Z,78.54
2023-03-21T06:45:51.746Z,78.38
2023-03-21T06:48:18.382Z,75.55
2023-03-21T06:50:45.172Z,75.19
2023-03-21T06:53:11.826Z,74.24
2023-03-21T06:55:38.721Z,73.34
2023-03-21T06:58:05.567Z,73.14
2023-03-21T07:00:32.672Z,73.53
2023-03-21T07:02:59.660Z,73.30
2023-03-21T07:05:26.426Z,73.19
2023-03-21T07:07:53.067Z,73.96
2023-03-21T07:10:19.825Z,72.85
2023-03-21T07:12:46.516Z,72.88
2023-03-21T07:15:13.201Z,72.10
2023-03-21T07:17:39.820Z,70.42
2023-03-21T07:20:06.910Z,71.28
2023-03-21T07:22:33.546Z,73.04
2023-03-21T07:25:05.228Z,71.56
2023-03-21T07:27:32.254Z,70.21
2023-03-21T07:29:58.962Z,69.44
2023-03-21T07:32:25.555Z,69.61
2023-03-21T07:34:52.241Z,68.37
2023-03-21T07:37:18.828Z,68.98
2023-03-21T07:39:45.747Z,67.38
2023-03-21T07:42:12.406Z,68.35
2023-03-21T07:44:39.057Z,66.20
2023-03-21T07:47:06.353Z,67.11
2023-03-21T07:49:33.230Z,66.02
2023-03-21T07:52:00.283Z,64.72
2023-03-21T07:54:26.933Z,66.25
2023-03-21T07:56:53.518Z,66.65
2023-03-21T07:59:20.310Z,63.87
2023-03-21T08:01:46.908Z,64.86
2023-03-21T08:04:13.574Z,63.88
2023-03-21T08:06:40.387Z,65.07
2023-03-21T08:09:07.960Z,62.95
2023-03-21T08:11:34.711Z,61.74
2023-03-21T08:14:01.624Z,61.64
2023-03-21T08:16:28.356Z,62.59
2023-03-21T08:18:55.005Z,60.72
2023-03-21T08:21:21.646Z,62.32
2023-03-21T08:23:48.288Z,60.44
2023-03-21T08:26:15.038Z,57.24
2023-03-21T08:28:41.652Z,56.93
2023-03-21T08:31:10.464Z,58.77
2023-03-21T08:33:37.352Z,60.19
2023-03-21T08:36:05.985Z,56.70
2023-03-21T08:38:33.387Z,56.62
2023-03-21T08:41:00.699Z,56.77
2023-03-21T08:43:28.465Z,57.14
2023-03-21T08:45:56.433Z,56.35
2023-03-21T08:48:23.361Z,55.40
2023-03-21T08:50:50.121Z,53.57
2023-03-21T08:53:16.765Z,54.59
2023-03-21T08:55:44.175Z,56.46
2023-03-21T08:58:10.818Z,56.08
2023-03-21T09:00:37.566Z,55.27
2023-03-21T09:03:04.230Z,52.93
2023-03-21T09:05:30.991Z,53.68
2023-03-21T09:07:57.639Z,53.23
2023-03-21T09:10:24.325Z,52.83
2023-03-21T09:12:52.809Z,52.39
2023-03-21T09:15:20.609Z,53.42
2023-03-21T09:17:47.756Z,52.52
2023-03-21T09:20:15.927Z,52.49
2023-03-21T09:22:42.947Z,51.93
2023-03-21T09:25:09.743Z,49.95
2023-03-21T09:27:37.015Z,51.51
2023-03-21T09:30:04.933Z,52.01
2023-03-21T09:32:31.576Z,48.91
2023-03-21T09:34:58.155Z,50.02
2023-03-21T09:37:24.772Z,49.71
2023-03-21T09:39:51.409Z,51.25
2023-03-21T09:42:41.837Z,49.32
2023-03-21T09:45:30.091Z,46.21
2023-03-21T09:47:57.517Z,47.25
2023-03-21T09:50:30.436Z,46.53
2023-03-21T09:53:01.273Z,47.58
2023-03-21T09:55:31.687Z,48.63
2023-03-21T09:58:16.178Z,48.94
2023-03-21T10:00:45.723Z,49.61
2023-03-21T10:03:33.175Z,50.85
2023-03-21T10:06:01.082Z,51.38
2023-03-21T10:08:32.301Z,51.38
2023-03-21T10:11:02.985Z,49.88
2023-03-21T10:13:33.961Z,49.78
2023-03-21T10:16:09.614Z,50.18
2023-03-21T10:18:36.669Z,47.37
2023-03-21T10:21:05.390Z,47.12
2023-03-21T10:23:32.046Z,46.06
2023-03-21T10:26:03.475Z,47.31
2023-03-21T10:31:28.173Z,45.67
2023-03-21T10:33:58.749Z,48.43
2023-03-21T10:36:31.579Z,47.36
2023-03-21T10:39:07.422Z,44.83
2023-03-21T10:41:34.679Z,44.24
2023-03-21T10:44:11.956Z,45.56
2023-03-21T10:46:38.817Z,44.44
2023-03-21T10:49:08.401Z,48.11
2023-03-21T10:51:37.632Z,44.59
2023-03-21T10:54:16.364Z,47.17
2023-03-21T10:56:58.054Z,45.76
2023-03-21T10:59:28.093Z,45.34
2023-03-21T11:01:57.237Z,45.58
2023-03-21T11:04:29.721Z,43.90
2023-03-21T11:07:03.732Z,42.87
2023-03-21T11:09:54.259Z,42.58
2023-03-21T11:12:32.768Z,44.93
2023-03-21T11:15:38.575Z,43.21
2023-03-21T11:18:34.549Z,43.32
2023-03-21T11:21:07.607Z,41.71
2023-03-21T11:23:37.608Z,43.53
2023-03-21T11:26:11.226Z,43.42
2023-03-21T11:28:40.685Z,42.18
2023-03-21T11:31:08.474Z,43.49
2023-03-21T11:33:55.315Z,44.00
2023-03-21T11:36:21.959Z,43.82
2023-03-21T11:38:54.802Z,42.59
2023-03-21T11:41:42.066Z,42.21
2023-03-21T11:44:26.634Z,44.75
2023-03-21T11:46:54.402Z,42.00
2023-03-21T11:49:22.026Z,40.76
2023-03-21T11:52:00.569Z,41.06
2023-03-21T11:54:51.619Z,42.00
2023-03-21T11:57:35.634Z,43.56
2023-03-21T12:00:21.491Z,42.79
2023-03-21T12:03:17.819Z,42.15
2023-03-21T12:05:53.984Z,41.75
2023-03-21T12:08:24.586Z,42.20
2023-03-21T12:10:59.380Z,43.01
2023-03-21T12:13:38.701Z,43.47
2023-03-21T12:16:40.740Z,43.34
2023-03-21T12:19:34.490Z,42.54
2023-03-21T12:22:01.112Z,41.99
2023-03-21T12:24:57.153Z,41.53
2023-03-21T12:27:44.692Z,40.25
2023-03-21T12:30:52.957Z,40.85
2023-03-21T12:33:34.573Z,41.03
2023-03-21T12:36:07.384Z,41.47
2023-03-21T12:38:55.134Z,40.60
2023-03-21T12:42:00.835Z,42.48
2023-03-21T12:44:32.344Z,40.80
2023-03-21T12:47:06.537Z,41.72
2023-03-21T12:49:39.832Z,43.21
2023-03-21T12:52:14.331Z,41.81
2023-03-21T12:54:51.111Z,42.24
2023-03-21T12:57:23.325Z,42.64
2023-03-21T12:59:59.242Z,41.42
2023-03-21T13:02:57.422Z,43.51
2023-03-21T13:05:23.938Z,44.30
2023-03-21T13:07:57.094Z,44.39
2023-03-21T13:10:24.072Z,40.31
2023-03-21T13:13:33.629Z,40.49
2023-03-21T13:16:09.271Z,39.78
2023-03-21T13:18:40.746Z,40.12
2023-03-21T13:21:36.463Z,36.81
2023-03-21T13:24:18.017Z,39.76
2023-03-21T13:26:49.134Z,40.22
2023-03-21T13:30:06.467Z,39.37
2023-03-21T13:32:39.758Z,40.61
2023-03-21T13:35:20.002Z,42.47
2023-03-21T13:37:58.557Z,42.77
2023-03-21T13:40:37.439Z,42.53
2023-03-21T13:43:04.513Z,42.82
2023-03-21T13:45:44.175Z,40.56
2023-03-21T13:48:59.969Z,41.91
2023-03-21T13:51:46.260Z,40.42
2023-03-21T13:54:17.258Z,40.01
2023-03-21T13:56:46.764Z,41.72
2023-03-21T13:59:19.897Z,42.69
2023-03-21T14:02:04.318Z,42.52
2023-03-21T14:04:41.892Z,39.71
2023-03-21T14:07:22.678Z,39.19
2023-03-21T14:09:52.605Z,38.66
2023-03-21T14:12:30.206Z,40.19
2023-03-21T14:15:16.815Z,39.51
2023-03-21T14:18:28.089Z,40.57
2023-03-21T14:21:07.027Z,40.96
2023-03-21T14:23:38.842Z,41.29
2023-03-21T14:26:06.385Z,42.21
2023-03-21T14:28:33.643Z,41.58
2023-03-21T14:31:01.366Z,41.07
2023-03-21T14:33:41.358Z,39.67
2023-03-21T14:36:14.764Z,41.93
2023-03-21T14:38:41.400Z,40.35
2023-03-21T14:41:28.303Z,39.05
2023-03-21T14:44:11.613Z,38.03
2023-03-21T14:46:39.437Z,37.93
2023-03-21T14:49:29.510Z,39.16
2023-03-21T14:52:00.462Z,39.20
2023-03-21T14:54:28.688Z,37.05
2023-03-21T14:57:03.952Z,37.89
2023-03-21T14:59:37.007Z,37.31
2023-03-21T15:02:16.334Z,38.06
2023-03-21T15:04:50.663Z,39.82
2023-03-21T15:07:25.674Z,39.13
2023-03-21T15:09:57.518Z,38.34
2023-03-21T15:12:24.374Z,40.46
2023-03-21T15:14:51.378Z,39.91
2023-03-21T15:17:19.367Z,38.63
2023-03-21T15:19:46.197Z,39.76
2023-03-21T15:22:25.890Z,39.83
2023-03-21T15:25:01.231Z,39.46
2023-03-21T15:27:32.865Z,39.38
2023-03-21T15:29:59.680Z,40.65
2023-03-21T15:32:28.802Z,39.69
2023-03-21T15:35:05.607Z,39.49
2023-03-21T15:37:35.707Z,40.32
2023-03-21T15:40:15.036Z,40.42
2023-03-21T15:42:41.977Z,39.37
2023-03-21T15:45:21.250Z,40.83
2023-03-21T15:47:52.025Z,40.75
2023-03-21T15:50:38.425Z,41.45
2023-03-21T15:53:11.644Z,41.83
2023-03-21T15:55:56.288Z,42.81
2023-03-21T15:58:26.319Z,43.14
2023-03-21T16:00:55.747Z,43.98
2023-03-21T16:03:41.797Z,43.86
2023-03-21T16:06:21.241Z,44.40
2023-03-21T16:08:49.515Z,44.46
2023-03-21T16:11:16.145Z,44.54
2023-03-21T16:13:42.908Z,43.81
2023-03-21T16:16:20.495Z,45.14
2023-03-21T16:18:47.400Z,44.04
2023-03-21T16:21:16.435Z,44.54
2023-03-21T16:23:43.140Z,44.70
2023-03-21T16:26:12.302Z,44.53
2023-03-21T16:28:39.034Z,45.01
2023-03-21T16:31:05.845Z,45.75
2023-03-21T16:33:32.486Z,45.65
2023-03-21T16:35:59.190Z,45.79
2023-03-21T16:38:25.945Z,45.88
2023-03-21T16:40:52.584Z,46.64
2023-03-21T16:43:19.407Z,46.98
2023-03-21T16:45:46.020Z,46.56
2023-03-21T16:48:12.803Z,46.92
2023-03-21T16:50:45.299Z,47.10
2023-03-21T16:53:11.959Z,47.31
2023-03-21T16:55:38.799Z,47.36
2023-03-21T16:58:05.800Z,47.73
2023-03-21T17:00:33.003Z,47.70
2023-03-21T17:03:02.112Z,47.28
2023-03-21T17:05:29.692Z,47.27
2023-03-21T17:07:56.795Z,48.48
2023-03-21T17:10:26.535Z,48.30
2023-03-21T17:12:54.099Z,48.28
2023-03-21T17:15:21.676Z,48.38
2023-03-21T17:17:49.163Z,48.83
2023-03-21T17:20:24.186Z,48.20
2023-03-21T17:22:51.013Z,47.72
2023-03-21T17:25:19.083Z,49.44
2023-03-21T17:27:46.621Z,49.08
2023-03-21T17:30:33.182Z,48.94
2023-03-21T17:33:00.300Z,50.24
2023-03-21T17:35:27.820Z,50.49
2023-03-21T17:37:54.847Z,50.87
2023-03-21T17:40:25.265Z,50.66
2023-03-21T17:42:52.535Z,50.73
2023-03-21T17:45:20.195Z,50.39
2023-03-21T17:47:46.859Z,50.47
2023-03-21T17:50:17.431Z,50.45
2023-03-21T17:52:44.112Z,51.23
2023-03-21T17:55:10.949Z,50.96
2023-03-21T17:57:37.626Z,51.77
2023-03-21T18:00:12.052Z,51.88
2023-03-21T18:02:39.984Z,51.40
2023-03-21T18:05:07.942Z,52.02
2023-03-21T18:08:04.453Z,51.71
2023-03-21T18:10:26.562Z,51.50
2023-03-21T18:12:53.530Z,51.20
2023-03-21T18:15:20.230Z,51.93
2023-03-21T18:17:47.629Z,52.48
2023-03-21T18:20:17.008Z,53.19
2023-03-21T18:22:44.527Z,52.73
2023-03-21T18:25:12.547Z,52.20
2023-03-21T18:28:02.075Z,51.23
2023-03-21T18:30:47.683Z,50.99
2023-03-21T18:33:14.411Z,50.35
2023-03-21T18:35:41.121Z,51.71
2023-03-21T18:38:07.982Z,53.17
2023-03-21T18:40:34.780Z,53.04
2023-03-21T18:43:59.211Z,53.33
2023-03-21T18:45:48.617Z,52.23
2023-03-21T18:48:15.290Z,53.75
2023-03-21T18:50:42.224Z,53.17
2023-03-21T18:53:08.871Z,52.36
2023-03-21T18:55:45.935Z,51.35
2023-03-21T18:58:14.620Z,53.34
2023-03-21T19:00:42.147Z,52.81
2023-03-21T19:03:21.727Z,52.76
2023-03-21T19:06:00.468Z,53.17
2023-03-21T19:08:27.170Z,53.18
2023-03-21T19:10:54.016Z,53.36
2023-03-21T19:13:20.651Z,53.88
2023-03-21T19:15:49.575Z,54.78
2023-03-21T19:21:03.614Z,54.27
2023-03-21T19:23:40.819Z,54.08
2023-03-21T19:26:16.889Z,54.31
2023-03-21T19:28:43.524Z,54.80
2023-03-21T19:31:10.168Z,54.29
2023-03-21T19:33:36.842Z,55.37
2023-03-21T19:36:17.570Z,55.03
2023-03-21T19:38:47.789Z,56.12
2023-03-21T19:41:14.470Z,55.98
2023-03-21T19:43:52.795Z,55.72
2023-03-21T19:46:20.746Z,56.29
2023-03-21T19:48:47.401Z,56.37
2023-03-21T19:51:27.473Z,56.24
2023-03-21T19:53:55.144Z,57.56
2023-03-21T19:56:26.275Z,58.38
2023-03-21T19:58:54.210Z,57.24
2023-03-21T20:01:20.891Z,57.72
2023-03-21T20:03:47.632Z,57.59
2023-03-21T20:06:14.483Z,56.55
2023-03-21T20:11:27.904Z,58.20
2023-03-21T20:13:54.587Z,59.42
2023-03-21T20:16:21.485Z,57.53
2023-03-21T20:18:48.172Z,57.42
2023-03-21T20:21:17.885Z,57.90
2023-03-21T20:23:48.185Z,57.67
2023-03-21T20:26:15.182Z,59.29
2023-03-21T20:28:55.916Z,58.08
2023-03-21T20:31:28.565Z,58.50
2023-03-21T20:33:55.338Z,59.49
2023-03-21T20:39:08.827Z,59.50
2023-03-21T20:41:35.429Z,60.55
2023-03-21T20:46:48.782Z,59.72
2023-03-21T20:49:15.633Z,60.18
2023-03-21T20:52:40.863Z,61.42
2023-03-21T20:54:29.273Z,59.47
2023-03-21T20:56:55.912Z,60.52
2023-03-21T20:59:27.287Z,61.25
2023-03-21T21:01:55.680Z,61.31
2023-03-21T21:04:41.199Z,60.25
2023-03-21T21:07:12.688Z,61.39
2023-03-21T21:09:39.531Z,61.48
2023-03-21T21:12:07.799Z,59.75
2023-03-21T21:14:35.617Z,59.97
2023-03-21T21:17:07.667Z,60.25
2023-03-21T21:19:39.252Z,61.69
2023-03-21T21:22:05.929Z,62.16
2023-03-21T21:24:32.597Z,62.16
2023-03-21T21:26:59.345Z,62.41
2023-03-21T21:29:26.015Z,61.83
2023-03-21T21:31:52.731Z,62.83
2023-03-21T21:34:19.480Z,65.83
2023-03-21T21:36:46.125Z,64.37
2023-03-21T21:39:12.974Z,62.70
2023-03-21T21:41:39.925Z,61.31
2023-03-21T21:44:06.569Z,60.81
2023-03-21T21:46:33.296Z,60.48
2023-03-21T21:49:00.091Z,59.18
2023-03-21T21:51:26.703Z,59.63
2023-03-21T21:53:53.958Z,60.56
2023-03-21T21:56:20.568Z,62.71
2023-03-21T21:58:47.310Z,64.36
2023-03-21T22:01:13.982Z,65.29
2023-03-21T22:03:40.799Z,64.43
2023-03-21T22:06:09.331Z,64.47
2023-03-21T22:08:36.112Z,63.65
2023-03-21T22:11:04.088Z,63.50
2023-03-21T22:13:30.839Z,66.04
2023-03-21T22:15:58.075Z,66.14
2023-03-21T22:18:24.695Z,64.75
2023-03-21T22:20:51.332Z,64.69
2023-03-21T22:23:17.949Z,63.46
2023-03-21T22:25:49.855Z,63.37
2023-03-21T22:28:16.495Z,61.97
2023-03-21T22:30:43.453Z,63.70
2023-03-21T22:33:10.295Z,63.54
2023-03-21T22:35:37.546Z,63.96
2023-03-21T22:38:04.325Z,63.49
2023-03-21T22:40:31.067Z,63.20
2023-03-21T22:42:57.808Z,63.99
2023-03-21T22:45:24.458Z,64.26
2023-03-21T22:47:51.213Z,64.08
2023-03-21T22:50:17.884Z,64.20
2023-03-21T22:52:44.573Z,63.71
2023-03-21T22:55:11.171Z,64.38
2023-03-21T22:57:37.918Z,63.11
2023-03-21T23:00:07.754Z,63.30
2023-03-21T23:02:34.399Z,63.92
2023-03-21T23:05:00.971Z,64.63
2023-03-21T23:07:27.718Z,64.04
2023-03-21T23:09:56.361Z,64.29
2023-03-21T23:12:23.099Z,63.94
2023-03-21T23:14:49.757Z,66.05
2023-03-21T23:17:16.418Z,65.04
2023-03-21T23:19:43.250Z,64.48
2023-03-21T23:22:09.877Z,65.80
2023-03-21T23:24:36.492Z,66.06
2023-03-21T23:27:03.224Z,66.91
2023-03-21T23:29:30.062Z,66.48
2023-03-21T23:31:56.662Z,67.73
2023-03-21T23:34:23.439Z,66.92
2023-03-21T23:36:50.117Z,67.99
2023-03-21T23:39:16.740Z,68.21
2023-03-21T23:41:43.492Z,67.72
2023-03-21T23:44:10.125Z,67.97
2023-03-21T23:46:36.836Z,68.43
2023-03-21T23:49:03.643Z,67.52
2023-03-21T23:51:30.272Z,69.16
2023-03-21T23:53:56.965Z,68.41
2023-03-21T23:56:25.613Z,68.92
2023-03-21T23:58:52.565Z,70.14
